Huvudsida
METAR-TAF:

METAR-TAF

Flygplatser :

Guidonia Montecelio, Italien

latitud: 42-00N, longitud: 012-44E, höjd: 88 m

Aktuellt väderrapport

Denna rapport gjordes för 1 timme och 17 minuter sedan, klockan 12:55 UTC
Vind 6 kt från nordväst, varierande mellan sydväst och nord/nordost
Temperatur 34°C
Fuktighet 34%
Tryck 1015 hPa
Sikt 10 km eller mer
Inga moln under 1 500 m eller inga cumulonimbus

METAR: LIRG 241255Z 31006KT 230V020 CAVOK 34/16 Q1015 RMK SKC MON NE LIB NC VIS MIN 9999 BLU

Tid: 16:12 (14:12 UTC)

Väderprognos

Denna rapport gjordes för 3 timmar och 12 minuter sedan, klockan 11:00 UTC
Prognos gäller från 24 kl. 12 UTC till 24 kl. 21 UTC
Vind 10 kt från nord/nordväst
Sikt 10 km eller mer
Inga moln under 1 500 m eller inga cumulonimbus
Blir
från 24 kl. 16 UTC till 24 kl. 18 UTC
Vind 6 kt från nordost

TAF: LIRG 241100Z 2412/2421 34010KT CAVOK BECMG 2416/2418 04006KT

Aktuella väderrapporter och prognoser från 4000 flygplatser (METAR- och TAF-rapporter).

De tillgängliga stationerna syns som gula och röda prickar på kartan.

För musen över prickarna för att se namnen på stationerna.

Klicka sedan för att få väderrapporter och prognoser.

För att ändra kartan: Klicka på de gröna knapparna med ett svart kors på för att zooma in; den gröna knappen med ett streck på för att zooma ut; eller på de gröna pilarna för angränsande kartor.


METAR-TAF: